Aviation Digital Data Service (ADDS)

Output produced by METARs form (1147 UTC 22 September 2017)
found at http://aviationweather.gov/adds/metars/
 
KLEB 221121Z 2212/2312 VRB03KT 1/4SM FG OVC001 
     FM221330 36006KT P6SM BKN250 
     FM230900 00000KT 1/4SM FG OVC001